Time;durP1;ratioP1;P1;durP2;ratioP2;P2;SDS_P1;SDS_P2;PMS_P1;PMS_P2;Temp;Humidity;BMP_temperature;BMP_pressure;BME280_temperature;BME280_humidity;BME280_pressure;Samples;Min_cycle;Max_cycle;Signal;HPM_P1;HPM_P2
2023/09/22 00:00:43;;;;;;;3.85;1.67;;;;;;;;;;5044768;28;20319;-60
2023/09/22 00:03:08;;;;;;;3.83;1.80;;;;;;;;;;5050929;28;20061;-60
2023/09/22 00:05:35;;;;;;;5.07;1.80;;;;;;;;;;5041014;28;20072;-60
2023/09/22 00:08:01;;;;;;;2.72;1.65;;;;;;;;;;5031168;28;20070;-60
2023/09/22 00:10:26;;;;;;;3.22;1.52;;;;;;;;;;5049540;28;20024;-60
2023/09/22 00:12:54;;;;;;;4.22;1.60;;;;;;;;;;5050605;28;20481;-59
2023/09/22 00:15:20;;;;;;;4.55;1.83;;;;;;;;;;5045387;28;20034;-60
2023/09/22 00:17:45;;;;;;;4.50;1.80;;;;;;;;;;5049538;28;20044;-60
2023/09/22 00:20:15;;;;;;;3.58;1.98;;;;;;;;;;5047830;28;20064;-60
2023/09/22 00:22:43;;;;;;;3.58;1.83;;;;;;;;;;5047660;28;20033;-60
2023/09/22 00:25:09;;;;;;;3.60;1.90;;;;;;;;;;5043941;28;20095;-60
2023/09/22 00:27:40;;;;;;;3.47;1.90;;;;;;;;;;5031076;28;20478;-60
2023/09/22 00:30:08;;;;;;;2.92;2.00;;;;;;;;;;5038173;28;20028;-59
2023/09/22 00:32:34;;;;;;;3.30;2.03;;;;;;;;;;5048821;28;20037;-59
2023/09/22 00:34:59;;;;;;;3.78;2.20;;;;;;;;;;5046257;28;20119;-60
2023/09/22 00:37:24;;;;;;;3.55;2.17;;;;;;;;;;5041043;28;20528;-59
2023/09/22 00:39:50;;;;;;;2.88;2.10;;;;;;;;;;5033933;28;20034;-60
2023/09/22 00:42:15;;;;;;;3.92;2.35;;;;;;;;;;5044348;28;20033;-59
2023/09/22 00:44:41;;;;;;;3.90;2.45;;;;;;;;;;5054383;28;20697;-60
2023/09/22 00:47:09;;;;;;;4.53;2.50;;;;;;;;;;5052762;28;20025;-60
2023/09/22 00:49:35;;;;;;;3.85;2.80;;;;;;;;;;5038777;28;20064;-60
2023/09/22 00:52:02;;;;;;;6.50;2.45;;;;;;;;;;5044377;28;20082;-60
2023/09/22 00:54:27;;;;;;;4.88;3.00;;;;;;;;;;5053463;28;20036;-59
2023/09/22 00:56:53;;;;;;;6.05;3.10;;;;;;;;;;5053237;28;20040;-60
2023/09/22 00:59:19;;;;;;;6.45;3.08;;;;;;;;;;5054775;28;20547;-60
2023/09/22 01:01:45;;;;;;;7.28;3.40;;;;;;;;;;5046150;28;20060;-60
2023/09/22 01:04:13;;;;;;;4.38;3.10;;;;;;;;;;5053246;28;20032;-61
2023/09/22 01:06:42;;;;;;;6.45;3.70;;;;;;;;;;5052175;28;20029;-60
2023/09/22 01:09:09;;;;;;;4.40;3.15;;;;;;;;;;5046615;28;20033;-59
2023/09/22 01:11:35;;;;;;;5.82;4.00;;;;;;;;;;5038884;28;20060;-59
2023/09/22 01:14:01;;;;;;;8.07;3.45;;;;;;;;;;5053396;28;20500;-59
2023/09/22 01:16:27;;;;;;;7.45;3.45;;;;;;;;;;5047459;28;20033;-58
2023/09/22 01:18:53;;;;;;;6.40;3.55;;;;;;;;;;5052392;28;20037;-61
2023/09/22 01:21:18;;;;;;;5.97;3.72;;;;;;;;;;5053293;28;20075;-61
2023/09/22 01:23:44;;;;;;;7.00;4.00;;;;;;;;;;5053733;28;20028;-59
2023/09/22 01:26:09;;;;;;;5.53;3.80;;;;;;;;;;5052157;28;20032;-59
2023/09/22 01:28:35;;;;;;;5.68;4.13;;;;;;;;;;5039053;28;20488;-59
2023/09/22 01:31:01;;;;;;;5.75;3.78;;;;;;;;;;5052748;28;20064;-59
2023/09/22 01:33:27;;;;;;;8.43;3.90;;;;;;;;;;5053478;28;20036;-59
2023/09/22 01:35:52;;;;;;;7.00;4.03;;;;;;;;;;5049650;28;20040;-59
2023/09/22 01:38:23;;;;;;;6.13;3.90;;;;;;;;;;5053003;28;20041;-59
2023/09/22 01:40:49;;;;;;;5.53;3.70;;;;;;;;;;5049654;28;20040;-59
2023/09/22 01:43:15;;;;;;;5.75;3.50;;;;;;;;;;5034952;28;20119;-59
2023/09/22 01:45:40;;;;;;;8.57;3.50;;;;;;;;;;5039260;28;20108;-59
2023/09/22 01:48:08;;;;;;;5.65;3.38;;;;;;;;;;5053251;28;20444;-59
2023/09/22 01:50:37;;;;;;;6.30;3.47;;;;;;;;;;5052778;28;20033;-59
2023/09/22 01:53:10;;;;;;;5.38;3.45;;;;;;;;;;5053288;28;20043;-59
2023/09/22 01:55:36;;;;;;;8.88;3.80;;;;;;;;;;5054615;28;20486;-59
2023/09/22 01:58:04;;;;;;;6.53;3.67;;;;;;;;;;5051974;28;20115;-59
2023/09/22 02:00:30;;;;;;;6.68;3.63;;;;;;;;;;5046968;28;20370;-59
2023/09/22 02:02:55;;;;;;;9.90;4.10;;;;;;;;;;5052376;28;20037;-59
2023/09/22 02:05:21;;;;;;;7.22;3.70;;;;;;;;;;5041718;28;20152;-59
2023/09/22 02:07:46;;;;;;;6.80;4.18;;;;;;;;;;5052189;28;20028;-59
2023/09/22 02:10:15;;;;;;;10.00;4.30;;;;;;;;;;5053465;28;20021;-60
2023/09/22 02:12:42;;;;;;;7.18;3.97;;;;;;;;;;5038473;28;20493;-60
2023/09/22 02:15:09;;;;;;;7.78;3.58;;;;;;;;;;5050171;28;20522;-60
2023/09/22 02:17:38;;;;;;;6.65;3.60;;;;;;;;;;5049198;28;20061;-60
2023/09/22 02:20:22;;;;;;;6.85;3.78;;;;;;;;;;5033822;28;20104;-60
2023/09/22 02:22:53;;;;;;;6.72;3.78;;;;;;;;;;5033737;28;20214;-60
2023/09/22 02:25:19;;;;;;;5.95;3.67;;;;;;;;;;5049339;28;20037;-60
2023/09/22 02:27:47;;;;;;;6.40;3.80;;;;;;;;;;5036565;28;20087;-60
2023/09/22 02:30:14;;;;;;;7.88;3.08;;;;;;;;;;5051009;28;20028;-60
2023/09/22 02:32:41;;;;;;;7.07;2.20;;;;;;;;;;5051670;28;20118;-61
2023/09/22 02:35:07;;;;;;;4.53;1.95;;;;;;;;;;5053032;28;20036;-61
2023/09/22 02:37:32;;;;;;;5.97;1.80;;;;;;;;;;5041661;28;20029;-60
2023/09/22 02:39:58;;;;;;;3.45;1.95;;;;;;;;;;5036178;28;20033;-60
2023/09/22 02:42:23;;;;;;;4.50;2.10;;;;;;;;;;5048661;28;20095;-60
2023/09/22 02:44:49;;;;;;;5.07;2.50;;;;;;;;;;5049048;28;20029;-60
2023/09/22 02:47:15;;;;;;;3.03;2.05;;;;;;;;;;5049866;28;20424;-60
2023/09/22 02:49:41;;;;;;;5.45;2.20;;;;;;;;;;5050084;28;20603;-60
2023/09/22 02:52:06;;;;;;;6.15;2.45;;;;;;;;;;5052349;28;20112;-61
2023/09/22 02:54:35;;;;;;;6.13;2.50;;;;;;;;;;5052049;28;20482;-61
2023/09/22 02:57:01;;;;;;;5.90;2.47;;;;;;;;;;5049751;28;20044;-60
2023/09/22 02:59:26;;;;;;;7.15;2.58;;;;;;;;;;5048974;28;20432;-60
2023/09/22 03:01:52;;;;;;;5.50;2.70;;;;;;;;;;5050457;28;20128;-60
2023/09/22 03:04:17;;;;;;;4.70;2.95;;;;;;;;;;5051401;28;20359;-60
2023/09/22 03:06:43;;;;;;;5.63;2.65;;;;;;;;;;5043170;28;20083;-59
2023/09/22 03:09:09;;;;;;;7.28;3.17;;;;;;;;;;5042882;28;20076;-61
2023/09/22 03:11:36;;;;;;;7.22;2.97;;;;;;;;;;5041799;28;20033;-61
2023/09/22 03:14:03;;;;;;;5.78;3.17;;;;;;;;;;5049481;28;20036;-60
2023/09/22 03:16:28;;;;;;;7.45;3.15;;;;;;;;;;5051481;28;20028;-60
2023/09/22 03:18:54;;;;;;;6.72;3.33;;;;;;;;;;5050457;28;20033;-61
2023/09/22 03:21:22;;;;;;;6.60;3.78;;;;;;;;;;5051201;28;20029;-61
2023/09/22 03:23:51;;;;;;;7.55;3.30;;;;;;;;;;5044859;28;20037;-59
2023/09/22 03:26:20;;;;;;;5.13;3.38;;;;;;;;;;5039810;28;20060;-61
2023/09/22 03:28:46;;;;;;;7.70;3.40;;;;;;;;;;5051547;28;20033;-60
2023/09/22 03:31:11;;;;;;;5.60;2.95;;;;;;;;;;5051657;28;20032;-60
2023/09/22 03:33:40;;;;;;;8.70;3.22;;;;;;;;;;5043569;28;20033;-60
2023/09/22 03:36:10;;;;;;;5.00;2.90;;;;;;;;;;5014963;28;20035;-59
2023/09/22 03:38:36;;;;;;;5.38;2.72;;;;;;;;;;5031122;28;20585;-61
2023/09/22 03:41:03;;;;;;;7.28;3.00;;;;;;;;;;5037269;28;20033;-61
2023/09/22 03:43:28;;;;;;;6.63;2.45;;;;;;;;;;5052623;28;20108;-59
2023/09/22 03:45:54;;;;;;;6.10;2.67;;;;;;;;;;5050760;28;20553;-58
2023/09/22 03:48:25;;;;;;;4.70;2.60;;;;;;;;;;5051156;28;20025;-56
2023/09/22 03:50:50;;;;;;;4.90;2.72;;;;;;;;;;5051005;28;20412;-59
2023/09/22 03:53:16;;;;;;;6.65;3.22;;;;;;;;;;5050473;28;20462;-58
2023/09/22 03:55:44;;;;;;;4.75;2.70;;;;;;;;;;5049806;28;20029;-58
2023/09/22 03:58:10;;;;;;;8.63;3.00;;;;;;;;;;5051655;28;20094;-59
2023/09/22 04:00:36;;;;;;;5.32;2.65;;;;;;;;;;5050884;28;20032;-59
2023/09/22 04:03:01;;;;;;;6.68;2.90;;;;;;;;;;5050904;28;20170;-59
2023/09/22 04:05:26;;;;;;;5.85;2.65;;;;;;;;;;5051595;28;20102;-58
2023/09/22 04:07:54;;;;;;;4.18;2.50;;;;;;;;;;5039673;28;20409;-58
2023/09/22 04:10:20;;;;;;;5.00;2.45;;;;;;;;;;5045713;28;20492;-58
2023/09/22 04:12:45;;;;;;;6.30;2.67;;;;;;;;;;5050850;28;20025;-59
2023/09/22 04:15:11;;;;;;;5.93;2.92;;;;;;;;;;5051607;28;20116;-59
2023/09/22 04:17:38;;;;;;;5.63;2.90;;;;;;;;;;5050693;28;20049;-60
2023/09/22 04:20:07;;;;;;;4.93;2.70;;;;;;;;;;5050415;28;20473;-58
2023/09/22 04:22:34;;;;;;;7.70;2.90;;;;;;;;;;5051895;28;20025;-60
2023/09/22 04:25:00;;;;;;;4.97;2.50;;;;;;;;;;5050227;28;20086;-59
2023/09/22 04:27:32;;;;;;;7.00;2.55;;;;;;;;;;5046797;28;20533;-59
2023/09/22 04:30:00;;;;;;;5.72;2.42;;;;;;;;;;5050956;28;20029;-59
2023/09/22 04:32:28;;;;;;;7.78;2.70;;;;;;;;;;5045149;28;20042;-58
2023/09/22 04:34:58;;;;;;;5.32;3.00;;;;;;;;;;5029572;28;20480;-60
2023/09/22 04:37:23;;;;;;;5.05;2.80;;;;;;;;;;5031445;28;20032;-59
2023/09/22 04:39:49;;;;;;;4.65;2.45;;;;;;;;;;5030756;28;20038;-59
2023/09/22 04:42:14;;;;;;;7.13;2.30;;;;;;;;;;5031604;28;20409;-58
2023/09/22 04:44:40;;;;;;;4.85;2.20;;;;;;;;;;5031011;28;20467;-59
2023/09/22 04:47:05;;;;;;;4.93;2.25;;;;;;;;;;5036617;28;20068;-58
2023/09/22 04:49:31;;;;;;;3.53;1.90;;;;;;;;;;5051013;28;20033;-58
2023/09/22 04:51:56;;;;;;;5.55;2.05;;;;;;;;;;5050421;28;20743;-58
2023/09/22 04:54:22;;;;;;;4.40;2.00;;;;;;;;;;5051087;28;20547;-59
2023/09/22 04:56:48;;;;;;;4.63;2.08;;;;;;;;;;5050465;28;20032;-58
2023/09/22 04:59:15;;;;;;;4.07;2.22;;;;;;;;;;5051522;28;20071;-58
2023/09/22 05:01:41;;;;;;;4.28;2.80;;;;;;;;;;5046725;28;20038;-58
2023/09/22 05:04:06;;;;;;;7.95;2.20;;;;;;;;;;5030091;28;20040;-57
2023/09/22 05:06:32;;;;;;;5.55;2.45;;;;;;;;;;5031220;28;20393;-59
2023/09/22 05:08:57;;;;;;;4.13;1.70;;;;;;;;;;5029157;28;20313;-59
2023/09/22 05:11:23;;;;;;;4.78;2.00;;;;;;;;;;5031356;28;20061;-60
2023/09/22 05:13:49;;;;;;;3.35;1.90;;;;;;;;;;5062467;28;20036;-59
2023/09/22 05:16:14;;;;;;;4.93;2.40;;;;;;;;;;5033066;28;20072;-59
2023/09/22 05:18:40;;;;;;;3.38;1.83;;;;;;;;;;5048931;28;20111;-59
2023/09/22 05:21:09;;;;;;;3.72;2.00;;;;;;;;;;5051514;28;20029;-59
2023/09/22 05:23:35;;;;;;;7.43;2.20;;;;;;;;;;5049840;28;20033;-59
2023/09/22 05:26:06;;;;;;;3.78;1.92;;;;;;;;;;5036828;28;20037;-59
2023/09/22 05:28:32;;;;;;;5.53;1.92;;;;;;;;;;5033585;28;20033;-59
2023/09/22 05:30:58;;;;;;;5.80;2.40;;;;;;;;;;5034656;28;20104;-57
2023/09/22 05:33:24;;;;;;;4.43;1.90;;;;;;;;;;5034735;28;20025;-59
2023/09/22 05:35:50;;;;;;;4.72;2.05;;;;;;;;;;5033707;28;20025;-58
2023/09/22 05:38:16;;;;;;;5.63;2.08;;;;;;;;;;5034526;28;20037;-57
2023/09/22 05:40:43;;;;;;;3.92;1.98;;;;;;;;;;5046713;28;20037;-59
2023/09/22 05:43:10;;;;;;;3.85;1.92;;;;;;;;;;5052688;28;20123;-59
2023/09/22 05:45:36;;;;;;;3.67;2.03;;;;;;;;;;5052848;28;20043;-57
2023/09/22 05:48:02;;;;;;;3.20;1.77;;;;;;;;;;5052983;28;20025;-60
2023/09/22 05:50:27;;;;;;;6.00;1.90;;;;;;;;;;5052494;28;20378;-61
2023/09/22 05:52:53;;;;;;;4.05;1.83;;;;;;;;;;5052921;28;20482;-58
2023/09/22 05:55:19;;;;;;;3.95;1.77;;;;;;;;;;5053357;28;20474;-58
2023/09/22 05:57:47;;;;;;;3.15;1.80;;;;;;;;;;5053543;28;20037;-59
2023/09/22 06:00:18;;;;;;;5.25;1.80;;;;;;;;;;5052373;28;20370;-60
2023/09/22 06:02:50;;;;;;;2.97;1.77;;;;;;;;;;5053186;28;20087;-58
2023/09/22 06:05:17;;;;;;;5.05;2.00;;;;;;;;;;5052693;28;20297;-59
2023/09/22 06:07:43;;;;;;;4.57;1.98;;;;;;;;;;5052925;28;20116;-59
2023/09/22 06:10:09;;;;;;;4.93;2.20;;;;;;;;;;5053991;28;20068;-58
2023/09/22 06:12:36;;;;;;;3.30;2.00;;;;;;;;;;5052601;28;20100;-58
2023/09/22 06:15:07;;;;;;;3.40;1.95;;;;;;;;;;5051777;28;20029;-58
2023/09/22 06:17:34;;;;;;;3.35;1.95;;;;;;;;;;5039797;28;20128;-59
2023/09/22 06:20:00;;;;;;;5.70;2.05;;;;;;;;;;5064803;28;20225;-60
2023/09/22 06:22:25;;;;;;;3.63;2.10;;;;;;;;;;5067848;28;20111;-58
2023/09/22 06:24:51;;;;;;;5.00;2.10;;;;;;;;;;5051608;28;20036;-60
2023/09/22 06:27:16;;;;;;;4.43;2.17;;;;;;;;;;5052370;28;20036;-58
2023/09/22 06:29:42;;;;;;;2.17;1.67;;;;;;;;;;5051756;28;20057;-60
2023/09/22 06:32:07;;;;;;;3.30;2.10;;;;;;;;;;5052800;28;20107;-58
2023/09/22 06:34:33;;;;;;;4.70;2.15;;;;;;;;;;5052412;28;20036;-59
2023/09/22 06:36:59;;;;;;;6.50;2.30;;;;;;;;;;5051951;28;20450;-58
2023/09/22 06:39:24;;;;;;;7.13;1.95;;;;;;;;;;5051379;28;20051;-56
2023/09/22 06:41:49;;;;;;;6.28;2.08;;;;;;;;;;5052476;28;20032;-60
2023/09/22 06:44:16;;;;;;;3.92;1.98;;;;;;;;;;5052984;28;20040;-58
2023/09/22 06:46:42;;;;;;;4.10;1.98;;;;;;;;;;5052754;28;20095;-60
2023/09/22 06:49:10;;;;;;;3.17;1.85;;;;;;;;;;5036769;28;20112;-60
2023/09/22 06:51:37;;;;;;;3.85;1.90;;;;;;;;;;5032962;28;20493;-59
2023/09/22 06:54:03;;;;;;;3.90;1.80;;;;;;;;;;5032238;28;20025;-55
2023/09/22 06:56:29;;;;;;;4.43;1.95;;;;;;;;;;5032894;28;20105;-57
2023/09/22 06:58:54;;;;;;;4.78;1.88;;;;;;;;;;5032176;28;20164;-58
2023/09/22 07:01:20;;;;;;;3.08;1.73;;;;;;;;;;5032749;28;20108;-57
2023/09/22 07:03:46;;;;;;;4.18;1.90;;;;;;;;;;5046188;28;20045;-60
2023/09/22 07:06:14;;;;;;;4.13;1.70;;;;;;;;;;5036135;28;20100;-58
2023/09/22 07:08:41;;;;;;;2.25;1.60;;;;;;;;;;5032782;28;20029;-58
2023/09/22 07:11:09;;;;;;;3.28;1.80;;;;;;;;;;5031739;28;20970;-59
2023/09/22 07:13:35;;;;;;;2.90;1.77;;;;;;;;;;5032469;28;20026;-55
2023/09/22 07:16:01;;;;;;;4.85;1.60;;;;;;;;;;5031886;28;20489;-58
2023/09/22 07:18:27;;;;;;;5.25;1.95;;;;;;;;;;5032957;28;20077;-57
2023/09/22 07:20:53;;;;;;;4.95;1.90;;;;;;;;;;5031852;28;20485;-58
2023/09/22 07:23:20;;;;;;;6.07;1.83;;;;;;;;;;5052131;28;20070;-57
2023/09/22 07:25:56;;;;;;;2.55;1.60;;;;;;;;;;5052122;28;20031;-58
2023/09/22 07:28:21;;;;;;;3.15;1.40;;;;;;;;;;5052588;28;20059;-57
2023/09/22 07:30:47;;;;;;;4.40;1.60;;;;;;;;;;5051449;28;20033;-59
2023/09/22 07:33:12;;;;;;;4.82;1.70;;;;;;;;;;5052263;28;20082;-59
2023/09/22 07:35:38;;;;;;;3.47;1.70;;;;;;;;;;5051554;28;20040;-59
2023/09/22 07:38:03;;;;;;;2.35;1.50;;;;;;;;;;5035361;28;20560;-58
2023/09/22 07:40:29;;;;;;;3.33;1.67;;;;;;;;;;5051878;28;20025;-58
2023/09/22 07:42:55;;;;;;;2.85;1.50;;;;;;;;;;5050534;28;20037;-57
2023/09/22 07:45:20;;;;;;;3.05;1.60;;;;;;;;;;5052226;28;20424;-59
2023/09/22 07:47:45;;;;;;;2.65;1.70;;;;;;;;;;5034048;28;20029;-59
2023/09/22 07:50:11;;;;;;;5.07;1.85;;;;;;;;;;5050911;28;20469;-56
2023/09/22 07:52:37;;;;;;;5.50;1.60;;;;;;;;;;5051548;28;20032;-58
2023/09/22 07:55:05;;;;;;;3.20;1.60;;;;;;;;;;5051081;28;20033;-58
2023/09/22 07:57:31;;;;;;;4.75;1.63;;;;;;;;;;5051965;28;20029;-58
2023/09/22 07:59:57;;;;;;;4.22;1.48;;;;;;;;;;5049668;28;20445;-57
2023/09/22 08:02:24;;;;;;;3.88;1.50;;;;;;;;;;5050819;28;20469;-57
2023/09/22 08:04:49;;;;;;;2.10;1.40;;;;;;;;;;5051113;28;20060;-59
2023/09/22 08:07:15;;;;;;;3.10;1.58;;;;;;;;;;5038175;28;20497;-58
2023/09/22 08:09:40;;;;;;;3.42;1.63;;;;;;;;;;5030575;28;20037;-59
2023/09/22 08:12:07;;;;;;;2.95;1.33;;;;;;;;;;5031372;28;20060;-60
2023/09/22 08:14:34;;;;;;;2.20;1.30;;;;;;;;;;5030562;28;20080;-59
2023/09/22 08:17:05;;;;;;;3.83;1.63;;;;;;;;;;5030978;28;20084;-58
2023/09/22 08:19:30;;;;;;;2.78;1.30;;;;;;;;;;5031729;28;20022;-57
2023/09/22 08:21:57;;;;;;;2.17;1.15;;;;;;;;;;5029727;28;20048;-57
2023/09/22 08:24:23;;;;;;;5.68;1.60;;;;;;;;;;5031950;28;20037;-58
2023/09/22 08:26:49;;;;;;;3.67;1.48;;;;;;;;;;5047420;28;20037;-59
2023/09/22 08:29:15;;;;;;;6.20;1.50;;;;;;;;;;5051261;28;20071;-57
2023/09/22 08:31:40;;;;;;;3.08;1.35;;;;;;;;;;5051545;28;20354;-60
2023/09/22 08:34:06;;;;;;;3.75;1.30;;;;;;;;;;5049187;28;20090;-58
2023/09/22 08:36:33;;;;;;;3.45;1.48;;;;;;;;;;5051648;28;20021;-57
2023/09/22 08:38:59;;;;;;;7.07;1.60;;;;;;;;;;5050751;28;20036;-58
2023/09/22 08:41:26;;;;;;;2.75;1.40;;;;;;;;;;5050971;28;20082;-57
2023/09/22 08:43:53;;;;;;;3.35;1.50;;;;;;;;;;5049664;28;20029;-59
2023/09/22 08:46:19;;;;;;;2.72;1.20;;;;;;;;;;5051626;28;20469;-60
2023/09/22 08:48:44;;;;;;;2.90;1.38;;;;;;;;;;5051525;28;20036;-57
2023/09/22 08:51:10;;;;;;;1.80;1.20;;;;;;;;;;5050542;28;20025;-58
2023/09/22 08:53:39;;;;;;;2.80;1.40;;;;;;;;;;5051424;28;20039;-58
2023/09/22 08:56:06;;;;;;;3.72;1.40;;;;;;;;;;5033845;28;20478;-59
2023/09/22 08:58:33;;;;;;;3.53;1.60;;;;;;;;;;5030237;28;20036;-57
2023/09/22 09:01:02;;;;;;;3.58;1.40;;;;;;;;;;5031343;28;20064;-58
2023/09/22 09:03:27;;;;;;;3.10;1.42;;;;;;;;;;5034132;28;20072;-58
2023/09/22 09:06:05;;;;;;;2.53;1.35;;;;;;;;;;5033009;28;20033;-57
2023/09/22 09:08:30;;;;;;;1.42;1.23;;;;;;;;;;5050413;28;20533;-58
2023/09/22 09:10:57;;;;;;;4.43;1.67;;;;;;;;;;5053421;28;20116;-58
2023/09/22 09:13:29;;;;;;;2.67;1.42;;;;;;;;;;5054944;28;20036;-58
2023/09/22 09:15:55;;;;;;;4.13;1.50;;;;;;;;;;5054199;28;20025;-59
2023/09/22 09:18:23;;;;;;;2.03;1.27;;;;;;;;;;5053545;28;20102;-59
2023/09/22 09:21:12;;;;;;;2.35;1.20;;;;;;;;;;5054609;28;20041;-59
2023/09/22 09:23:52;;;;;;;5.07;1.70;;;;;;;;;;5054999;28;20059;-59
2023/09/22 09:26:29;;;;;;;2.05;1.30;;;;;;;;;;5051245;28;20025;-59
2023/09/22 09:28:55;;;;;;;3.45;1.50;;;;;;;;;;5034297;28;20030;-59
2023/09/22 09:31:45;;;;;;;3.70;1.40;;;;;;;;;;5034438;28;20445;-59
2023/09/22 09:34:12;;;;;;;1.95;1.30;;;;;;;;;;5049877;28;20761;-59
2023/09/22 09:36:38;;;;;;;2.38;1.30;;;;;;;;;;5053805;28;20153;-58
2023/09/22 09:39:03;;;;;;;2.35;1.52;;;;;;;;;;5052520;28;20116;-60
2023/09/22 09:41:30;;;;;;;3.03;1.30;;;;;;;;;;5054256;28;20124;-59
2023/09/22 09:43:58;;;;;;;2.50;1.10;;;;;;;;;;5053602;28;20033;-60
2023/09/22 09:46:28;;;;;;;2.70;1.20;;;;;;;;;;5054757;28;20021;-60
2023/09/22 09:48:55;;;;;;;9.32;1.40;;;;;;;;;;5053928;28;20079;-60
2023/09/22 09:51:24;;;;;;;4.88;1.10;;;;;;;;;;5052173;28;20033;-61
2023/09/22 09:53:52;;;;;;;2.15;1.25;;;;;;;;;;5054176;28;20040;-59
2023/09/22 09:56:18;;;;;;;3.42;1.10;;;;;;;;;;5052349;28;20025;-60
2023/09/22 09:58:48;;;;;;;1.92;1.20;;;;;;;;;;5052639;28;20040;-60
2023/09/22 10:01:14;;;;;;;3.92;1.20;;;;;;;;;;5053207;28;20650;-59
2023/09/22 10:03:39;;;;;;;4.32;1.70;;;;;;;;;;5054137;28;20025;-59
2023/09/22 10:06:09;;;;;;;2.13;1.25;;;;;;;;;;5052615;28;20029;-59
2023/09/22 10:08:34;;;;;;;2.75;1.00;;;;;;;;;;5054363;28;20033;-59
2023/09/22 10:11:03;;;;;;;4.43;2.03;;;;;;;;;;5052740;28;20028;-60
2023/09/22 10:13:29;;;;;;;2.15;1.40;;;;;;;;;;5052185;28;20032;-59
2023/09/22 10:15:56;;;;;;;4.10;1.13;;;;;;;;;;5053273;28;20517;-58
2023/09/22 10:18:43;;;;;;;2.05;1.00;;;;;;;;;;5040279;28;20045;-59
2023/09/22 10:21:29;;;;;;;2.55;1.00;;;;;;;;;;5034406;28;20036;-60
2023/09/22 10:24:16;;;;;;;1.73;0.90;;;;;;;;;;5047336;28;20037;-63
2023/09/22 10:27:14;;;;;;;1.80;0.90;;;;;;;;;;5045821;28;20060;-59
2023/09/22 10:29:42;;;;;;;1.50;0.90;;;;;;;;;;5011484;28;20046;-59
2023/09/22 10:32:16;;;;;;;2.20;0.73;;;;;;;;;;5009002;28;20522;-60
2023/09/22 10:34:49;;;;;;;1.30;0.90;;;;;;;;;;5006930;28;20031;-60
2023/09/22 10:37:16;;;;;;;3.28;1.10;;;;;;;;;;4990944;28;20539;-59
2023/09/22 10:40:15;;;;;;;2.25;1.00;;;;;;;;;;4991614;28;20039;-58
2023/09/22 10:42:43;;;;;;;4.25;1.30;;;;;;;;;;4996152;28;20507;-59
2023/09/22 10:45:09;;;;;;;2.80;1.10;;;;;;;;;;4974392;28;20048;-59
2023/09/22 10:47:42;;;;;;;2.88;1.40;;;;;;;;;;4991711;28;20035;-59
2023/09/22 10:50:30;;;;;;;1.33;0.90;;;;;;;;;;4974310;28;20054;-59
2023/09/22 10:53:06;;;;;;;2.38;1.10;;;;;;;;;;4991209;28;20508;-61
2023/09/22 10:55:37;;;;;;;1.80;1.02;;;;;;;;;;4991531;28;20047;-60
2023/09/22 10:58:09;;;;;;;1.52;1.00;;;;;;;;;;5004900;28;20042;-61
2023/09/22 11:00:42;;;;;;;1.23;0.90;;;;;;;;;;4994697;28;20445;-61
2023/09/22 11:03:14;;;;;;;3.38;1.00;;;;;;;;;;5006211;28;20038;-59
2023/09/22 11:05:42;;;;;;;1.33;1.00;;;;;;;;;;5018870;28;20128;-60
2023/09/22 11:08:17;;;;;;;1.88;0.90;;;;;;;;;;5032100;28;20096;-59
2023/09/22 11:10:47;;;;;;;1.73;1.00;;;;;;;;;;5032766;28;20033;-59
2023/09/22 11:13:16;;;;;;;2.33;1.10;;;;;;;;;;5030697;28;20470;-59
2023/09/22 11:15:59;;;;;;;1.60;1.02;;;;;;;;;;5032780;28;20065;-60
2023/09/22 11:18:35;;;;;;;1.60;1.00;;;;;;;;;;5032236;28;20057;-60
2023/09/22 11:21:04;;;;;;;2.47;1.10;;;;;;;;;;5032008;28;20041;-60
2023/09/22 11:23:30;;;;;;;2.35;1.08;;;;;;;;;;5031950;28;20034;-60
2023/09/22 11:25:58;;;;;;;2.33;0.93;;;;;;;;;;5032329;28;20114;-60
2023/09/22 11:28:24;;;;;;;2.03;1.10;;;;;;;;;;5032109;28;20112;-59
2023/09/22 11:30:50;;;;;;;4.72;1.20;;;;;;;;;;5034002;28;20094;-59
2023/09/22 11:33:16;;;;;;;2.03;1.00;;;;;;;;;;5051470;28;20055;-60
2023/09/22 11:35:42;;;;;;;1.25;1.15;;;;;;;;;;5051026;28;20452;-59
2023/09/22 11:38:29;;;;;;;1.90;1.35;;;;;;;;;;5051484;28;20039;-59
2023/09/22 11:41:16;;;;;;;2.25;1.10;;;;;;;;;;5050817;28;20029;-58
2023/09/22 11:43:46;;;;;;;4.47;1.02;;;;;;;;;;5051911;28;20029;-59
2023/09/22 11:46:14;;;;;;;1.73;1.20;;;;;;;;;;5049434;28;20132;-59
2023/09/22 11:49:04;;;;;;;2.33;0.93;;;;;;;;;;5051669;28;20064;-59
2023/09/22 11:51:43;;;;;;;3.30;1.00;;;;;;;;;;5052095;28;20028;-59
2023/09/22 11:54:13;;;;;;;3.38;1.42;;;;;;;;;;5032706;28;20036;-59
2023/09/22 11:56:39;;;;;;;3.70;1.10;;;;;;;;;;5036240;28;20037;-59
2023/09/22 11:59:13;;;;;;;1.58;1.00;;;;;;;;;;5030082;28;20425;-59
2023/09/22 12:01:40;;;;;;;1.95;1.08;;;;;;;;;;5031964;28;20417;-59
2023/09/22 12:04:06;;;;;;;2.25;1.25;;;;;;;;;;5029881;28;20061;-59
2023/09/22 12:06:32;;;;;;;3.20;1.08;;;;;;;;;;5030862;28;20083;-60
2023/09/22 12:08:58;;;;;;;1.38;1.10;;;;;;;;;;5032533;28;20367;-58
2023/09/22 12:11:26;;;;;;;3.30;1.13;;;;;;;;;;5037579;28;20778;-59
2023/09/22 12:13:52;;;;;;;2.80;1.20;;;;;;;;;;5050112;28;20477;-60
2023/09/22 12:16:17;;;;;;;3.92;1.05;;;;;;;;;;5050623;28;20064;-59
2023/09/22 12:18:43;;;;;;;2.85;1.42;;;;;;;;;;5051353;28;20378;-60
2023/09/22 12:21:08;;;;;;;1.23;1.00;;;;;;;;;;5049600;28;20432;-60
2023/09/22 12:23:34;;;;;;;2.90;1.08;;;;;;;;;;5050669;28;20107;-60
2023/09/22 12:26:01;;;;;;;1.67;1.00;;;;;;;;;;5050442;28;20033;-60
2023/09/22 12:28:26;;;;;;;3.20;1.23;;;;;;;;;;5049622;28;20029;-59
2023/09/22 12:30:52;;;;;;;2.53;1.30;;;;;;;;;;5050488;28;20025;-59
2023/09/22 12:33:18;;;;;;;1.95;1.30;;;;;;;;;;5050587;28;20477;-59
2023/09/22 12:35:44;;;;;;;2.97;1.13;;;;;;;;;;5051937;28;20033;-59
2023/09/22 12:38:09;;;;;;;3.50;1.40;;;;;;;;;;5053655;28;20100;-59
2023/09/22 12:40:36;;;;;;;2.20;1.30;;;;;;;;;;5055400;28;20036;-60
2023/09/22 12:43:02;;;;;;;2.45;1.20;;;;;;;;;;5055241;28;20355;-60
2023/09/22 12:45:30;;;;;;;2.85;1.17;;;;;;;;;;5054620;28;20044;-59
2023/09/22 12:47:55;;;;;;;3.15;1.38;;;;;;;;;;5055878;28;20043;-59
2023/09/22 12:50:21;;;;;;;3.88;1.63;;;;;;;;;;5054828;28;20025;-60
2023/09/22 12:52:46;;;;;;;2.88;1.30;;;;;;;;;;5054891;28;20029;-61
2023/09/22 12:55:15;;;;;;;1.60;1.25;;;;;;;;;;5053209;28;20466;-60
2023/09/22 12:57:40;;;;;;;3.42;1.50;;;;;;;;;;5055174;28;20029;-60
2023/09/22 13:00:07;;;;;;;2.13;1.40;;;;;;;;;;5054745;28;20083;-59
2023/09/22 13:02:34;;;;;;;3.03;1.50;;;;;;;;;;5054925;28;20465;-60
2023/09/22 13:05:01;;;;;;;4.25;1.50;;;;;;;;;;5054224;28;20036;-61
2023/09/22 13:07:26;;;;;;;2.05;1.50;;;;;;;;;;5054551;28;20262;-60
2023/09/22 13:09:52;;;;;;;2.97;1.70;;;;;;;;;;5054928;28;20473;-60
2023/09/22 13:12:17;;;;;;;2.25;1.60;;;;;;;;;;5035535;28;20030;-60
2023/09/22 13:14:42;;;;;;;3.53;1.60;;;;;;;;;;5034925;28;20030;-60
2023/09/22 13:17:09;;;;;;;2.80;1.50;;;;;;;;;;5034079;28;20095;-60
2023/09/22 13:19:35;;;;;;;2.35;1.60;;;;;;;;;;5033402;28;20025;-60
2023/09/22 13:22:00;;;;;;;3.55;1.60;;;;;;;;;;5034500;28;20033;-59
2023/09/22 13:24:26;;;;;;;3.08;1.70;;;;;;;;;;5034011;28;20033;-59
2023/09/22 13:26:52;;;;;;;2.10;1.70;;;;;;;;;;5049993;28;20029;-59
2023/09/22 13:29:18;;;;;;;2.85;1.77;;;;;;;;;;5052514;28;20037;-60
2023/09/22 13:31:44;;;;;;;4.35;1.63;;;;;;;;;;5054413;28;20029;-60
2023/09/22 13:34:10;;;;;;;2.63;1.60;;;;;;;;;;5047903;28;20509;-60
2023/09/22 13:36:35;;;;;;;3.10;1.70;;;;;;;;;;5037978;28;20083;-60
2023/09/22 13:39:01;;;;;;;2.15;1.60;;;;;;;;;;5045022;28;20029;-56
2023/09/22 13:41:27;;;;;;;1.85;1.60;;;;;;;;;;5054555;28;20037;-57
2023/09/22 13:43:52;;;;;;;2.83;1.60;;;;;;;;;;5037852;28;20088;-54
2023/09/22 13:46:18;;;;;;;3.45;1.60;;;;;;;;;;5044464;28;20033;-53
2023/09/22 13:48:45;;;;;;;4.03;1.60;;;;;;;;;;5052470;28;20036;-53
2023/09/22 13:51:10;;;;;;;2.63;1.70;;;;;;;;;;5052627;28;20449;-58
2023/09/22 13:53:38;;;;;;;3.08;1.70;;;;;;;;;;5052872;28;20025;-57
2023/09/22 13:56:04;;;;;;;3.30;1.55;;;;;;;;;;5050939;28;20037;-58
2023/09/22 13:58:30;;;;;;;3.33;1.63;;;;;;;;;;5053023;28;20044;-56
2023/09/22 14:00:56;;;;;;;2.35;1.80;;;;;;;;;;5047410;28;20033;-58
2023/09/22 14:03:22;;;;;;;2.38;1.70;;;;;;;;;;5033200;28;20037;-56
2023/09/22 14:05:48;;;;;;;3.38;1.67;;;;;;;;;;5036265;28;20041;-57
2023/09/22 14:08:14;;;;;;;2.97;1.88;;;;;;;;;;5051148;28;20090;-56
2023/09/22 14:10:41;;;;;;;2.40;1.73;;;;;;;;;;5053512;28;20024;-57
2023/09/22 14:13:07;;;;;;;2.38;1.80;;;;;;;;;;5052627;28;20029;-55
2023/09/22 14:15:32;;;;;;;3.78;1.80;;;;;;;;;;5051260;28;20138;-56
2023/09/22 14:17:58;;;;;;;4.53;1.73;;;;;;;;;;5053881;28;20132;-58
2023/09/22 14:20:24;;;;;;;1.85;1.60;;;;;;;;;;5049849;28;20029;-57
2023/09/22 14:22:50;;;;;;;2.30;1.50;;;;;;;;;;5052050;28;20035;-55
2023/09/22 14:25:16;;;;;;;2.17;1.67;;;;;;;;;;5048928;28;20037;-57
2023/09/22 14:27:42;;;;;;;2.70;1.40;;;;;;;;;;5051881;28;20029;-55
2023/09/22 14:30:08;;;;;;;3.35;1.60;;;;;;;;;;5052338;28;20458;-56
2023/09/22 14:32:34;;;;;;;2.15;1.63;;;;;;;;;;5038021;28;20040;-58
2023/09/22 14:35:00;;;;;;;3.35;1.50;;;;;;;;;;5038501;28;20036;-56
2023/09/22 14:37:25;;;;;;;1.95;1.67;;;;;;;;;;5052930;28;20033;-57
2023/09/22 14:39:56;;;;;;;4.00;1.60;;;;;;;;;;5054275;28;20112;-56
2023/09/22 14:42:23;;;;;;;2.50;1.60;;;;;;;;;;5051877;28;20079;-54
2023/09/22 14:44:48;;;;;;;3.50;1.48;;;;;;;;;;5050782;28;20037;-57